Погода Лонг-Бична неделю

Калифорния, США

01 - 07 сентября
  • 01сентября
    Сегодня
    +18°
    +27°
    Ясно и безоблачно
    ВремяПогодаТемператураВлажностьДавлениеВетер, м/сВероятность осадков
    02:00Ясно и безоблачно+20°C81 %760 мм1.1 м/с2 %
    05:00Ясно и безоблачно+18°C82 %760 мм1.2 м/с2 %
    08:00Ясно и безоблачно+20°C75 %761 мм0.3 м/с2 %
    11:00Ясно и безоблачно+24°C57 %761 мм3.0 м/с2 %
    14:00Ясно и безоблачно+26°C47 %761 мм4.1 м/с2 %
    17:00Ясно и безоблачно+26°C47 %759 мм5.0 м/с2 %
    20:00Ясно и безоблачно+22°C59 %759 мм4.0 м/с2 %
    23:00Ясно и безоблачно+21°C69 %761 мм2.2 м/с2 %
  • 02сентября
    Среда
    +19°
    +27°
    Ясно и безоблачно
    ВремяПогодаТемператураВлажностьДавлениеВетер, м/сВероятность осадков
    02:00Ясно и безоблачно+19°C77 %761 мм0.5 м/с2 %
    05:00Ясно и безоблачно+19°C79 %761 мм0.9 м/с2 %
    08:00Ясно и безоблачно+20°C72 %761 мм0.4 м/с2 %
    11:00Ясно и безоблачно+24°C54 %761 мм2.9 м/с2 %
    14:00Ясно и безоблачно+26°C44 %761 мм3.7 м/с2 %
    17:00Ясно и безоблачно+26°C46 %759 мм4.8 м/с2 %
    20:00Ясно и безоблачно+23°C51 %759 мм4.0 м/с2 %
    23:00Ясно и безоблачно+21°C69 %760 мм1.8 м/с2 %
  • 03сентября
    Четверг
    +19°
    +26°
    Ясно и безоблачно
    ВремяПогодаТемператураВлажностьДавлениеВетер, м/сВероятность осадков
    02:00Ясно и безоблачно+20°C79 %760 мм0.9 м/с2 %
    05:00Облачно с прояснениями+20°C80 %759 мм1.3 м/с2 %
    08:00Ясно и безоблачно+22°C73 %760 мм1.2 м/с2 %
    11:00Ясно и безоблачно+24°C58 %760 мм3.2 м/с2 %
    14:00Ясно и безоблачно+25°C54 %758 мм3.8 м/с2 %
    17:00Ясно и безоблачно+25°C57 %758 мм4.7 м/с2 %
    20:00Ясно и безоблачно+23°C61 %757 мм4.0 м/с2 %
    23:00Ясно и безоблачно+21°C72 %758 мм1.9 м/с2 %
  • 04сентября
    Пятница
    +19°
    +27°
    Ясно и безоблачно
    ВремяПогодаТемператураВлажностьДавлениеВетер, м/сВероятность осадков
    02:00Практически безоблачно+20°C78 %758 мм1.2 м/с2 %
    05:00Практически безоблачно+19°C80 %758 мм1.4 м/с2 %
    08:00Практически безоблачно+21°C73 %759 мм0.6 м/с2 %
    11:00Ясно и безоблачно+25°C52 %759 мм3.0 м/с2 %
    14:00Ясно и безоблачно+26°C47 %758 мм3.6 м/с2 %
    17:00Ясно и безоблачно+26°C50 %758 мм4.1 м/с2 %
    20:00Ясно и безоблачно+23°C66 %758 мм3.2 м/с2 %
    23:00Ясно и безоблачно+22°C75 %759 мм1.4 м/с2 %
  • 05сентября
    Суббота
    +21°
    +29°
    Ясно и безоблачно
    ВремяПогодаТемператураВлажностьДавлениеВетер, м/сВероятность осадков
    02:00Ясно и безоблачно+21°C80 %759 мм0.4 м/с3 %
    05:00Ясно и безоблачно+20°C81 %758 мм0.6 м/с8 %
    08:00Ясно и безоблачно+22°C73 %760 мм0.0 м/с13 %
    11:00Ясно и безоблачно+26°C52 %759 мм2.7 м/с15 %
    14:00Ясно и безоблачно+29°C36 %758 мм3.8 м/с16 %
    17:00Ясно и безоблачно+28°C40 %758 мм4.4 м/с14 %
    20:00Ясно и безоблачно+24°C56 %758 мм3.0 м/с19 %
    23:00Облачно с прояснениями+23°C65 %759 мм1.3 м/с25 %
  • 06сентября
    Воскресенье
    +18°
    +31°
    Ясно и безоблачно
    ВремяПогодаТемператураВлажностьДавлениеВетер, м/сВероятность осадков
    05:00Практически безоблачно+21°C73 %758 мм1.0 м/с26 %
    11:00Ясно и безоблачно+26°C90 %759 мм2.0 м/с29 %
    17:00Ясно и безоблачно+30°C43 %757 мм3.1 м/с28 %
    23:00Ясно и безоблачно+21°C74 %758 мм2.6 м/с24 %
  • 07сентября
    Понедельник
    +17°
    +27°
    Ясно и безоблачно
    ВремяПогодаТемператураВлажностьДавлениеВетер, м/сВероятность осадков
    05:00Ясно и безоблачно+19°C86 %758 мм1.8 м/с15 %
    11:00Ясно и безоблачно+25°C62 %759 мм2.6 м/с23 %
    17:00Ясно и безоблачно+25°C57 %757 мм4.8 м/с15 %
    23:00Практически безоблачно+20°C81 %758 мм2.3 м/с16 %
Мы используем cookies
Соглашаюсь